sensor_id;sensor_type;location;lat;lon;timestamp;P1;durP1;ratioP1;P2;durP2;ratioP2
61685;SDS011;47592;45.904;8.978;2023-05-07T00:01:06;7.30;;;4.95;;
61685;SDS011;47592;45.904;8.978;2023-05-07T00:03:31;7.88;;;4.82;;
61685;SDS011;47592;45.904;8.978;2023-05-07T00:05:59;8.75;;;5.32;;
61685;SDS011;47592;45.904;8.978;2023-05-07T00:08:29;9.57;;;4.97;;
61685;SDS011;47592;45.904;8.978;2023-05-07T00:10:56;7.15;;;4.72;;
61685;SDS011;47592;45.904;8.978;2023-05-07T00:13:22;7.88;;;4.93;;
61685;SDS011;47592;45.904;8.978;2023-05-07T00:15:47;8.80;;;5.32;;
61685;SDS011;47592;45.904;8.978;2023-05-07T00:18:13;7.82;;;5.18;;
61685;SDS011;47592;45.904;8.978;2023-05-07T00:20:38;9.60;;;5.55;;
61685;SDS011;47592;45.904;8.978;2023-05-07T00:23:03;8.82;;;5.80;;
61685;SDS011;47592;45.904;8.978;2023-05-07T00:25:29;11.63;;;5.35;;
61685;SDS011;47592;45.904;8.978;2023-05-07T00:27:54;8.38;;;5.10;;
61685;SDS011;47592;45.904;8.978;2023-05-07T00:30:27;8.38;;;4.43;;
61685;SDS011;47592;45.904;8.978;2023-05-07T00:32:53;15.02;;;4.85;;
61685;SDS011;47592;45.904;8.978;2023-05-07T00:35:19;9.48;;;4.60;;
61685;SDS011;47592;45.904;8.978;2023-05-07T00:37:44;12.07;;;4.00;;
61685;SDS011;47592;45.904;8.978;2023-05-07T00:40:10;9.70;;;4.80;;
61685;SDS011;47592;45.904;8.978;2023-05-07T00:42:36;8.10;;;4.35;;
61685;SDS011;47592;45.904;8.978;2023-05-07T00:45:02;7.05;;;4.45;;
61685;SDS011;47592;45.904;8.978;2023-05-07T00:47:29;9.10;;;4.10;;
61685;SDS011;47592;45.904;8.978;2023-05-07T00:51:08;11.40;;;4.20;;
61685;SDS011;47592;45.904;8.978;2023-05-07T00:54:26;6.57;;;3.53;;
61685;SDS011;47592;45.904;8.978;2023-05-07T01:00:36;8.25;;;3.72;;
61685;SDS011;47592;45.904;8.978;2023-05-07T01:03:01;6.13;;;3.15;;
61685;SDS011;47592;45.904;8.978;2023-05-07T01:05:27;10.48;;;3.80;;
61685;SDS011;47592;45.904;8.978;2023-05-07T01:07:53;8.80;;;3.97;;
61685;SDS011;47592;45.904;8.978;2023-05-07T01:10:19;8.15;;;4.40;;
61685;SDS011;47592;45.904;8.978;2023-05-07T01:12:45;8.20;;;3.95;;
61685;SDS011;47592;45.904;8.978;2023-05-07T01:15:12;6.95;;;3.85;;
61685;SDS011;47592;45.904;8.978;2023-05-07T01:17:39;7.03;;;3.83;;
61685;SDS011;47592;45.904;8.978;2023-05-07T01:20:06;8.90;;;3.95;;
61685;SDS011;47592;45.904;8.978;2023-05-07T01:22:33;8.05;;;3.92;;
61685;SDS011;47592;45.904;8.978;2023-05-07T01:25:06;5.78;;;3.58;;
61685;SDS011;47592;45.904;8.978;2023-05-07T01:27:33;7.28;;;3.30;;
61685;SDS011;47592;45.904;8.978;2023-05-07T01:30:00;7.13;;;3.28;;
61685;SDS011;47592;45.904;8.978;2023-05-07T01:32:38;6.55;;;3.50;;
61685;SDS011;47592;45.904;8.978;2023-05-07T01:35:09;6.32;;;3.42;;
61685;SDS011;47592;45.904;8.978;2023-05-07T01:37:37;6.43;;;3.60;;
61685;SDS011;47592;45.904;8.978;2023-05-07T01:40:03;10.25;;;3.38;;
61685;SDS011;47592;45.904;8.978;2023-05-07T01:42:29;7.38;;;4.03;;
61685;SDS011;47592;45.904;8.978;2023-05-07T01:44:55;7.20;;;3.55;;
61685;SDS011;47592;45.904;8.978;2023-05-07T01:47:21;8.55;;;4.32;;
61685;SDS011;47592;45.904;8.978;2023-05-07T01:49:46;9.05;;;3.72;;
61685;SDS011;47592;45.904;8.978;2023-05-07T01:52:12;6.70;;;3.92;;
61685;SDS011;47592;45.904;8.978;2023-05-07T01:54:38;9.85;;;3.80;;
61685;SDS011;47592;45.904;8.978;2023-05-07T01:57:04;5.80;;;2.80;;
61685;SDS011;47592;45.904;8.978;2023-05-07T01:59:29;5.95;;;3.00;;
61685;SDS011;47592;45.904;8.978;2023-05-07T02:01:55;7.28;;;3.33;;
61685;SDS011;47592;45.904;8.978;2023-05-07T02:04:20;7.63;;;3.10;;
61685;SDS011;47592;45.904;8.978;2023-05-07T02:06:46;7.15;;;3.33;;
61685;SDS011;47592;45.904;8.978;2023-05-07T02:09:25;6.95;;;3.33;;
61685;SDS011;47592;45.904;8.978;2023-05-07T02:23:26;14.55;;;3.80;;
61685;SDS011;47592;45.904;8.978;2023-05-07T02:33:33;7.40;;;3.83;;
61685;SDS011;47592;45.904;8.978;2023-05-07T02:36:09;7.63;;;3.78;;
61685;SDS011;47592;45.904;8.978;2023-05-07T02:38:38;6.65;;;3.22;;
61685;SDS011;47592;45.904;8.978;2023-05-07T02:41:04;6.65;;;3.60;;
61685;SDS011;47592;45.904;8.978;2023-05-07T02:43:30;6.78;;;4.13;;
61685;SDS011;47592;45.904;8.978;2023-05-07T02:48:29;7.10;;;3.42;;
61685;SDS011;47592;45.904;8.978;2023-05-07T02:50:54;6.93;;;3.75;;
61685;SDS011;47592;45.904;8.978;2023-05-07T02:53:20;9.60;;;3.28;;
61685;SDS011;47592;45.904;8.978;2023-05-07T02:55:53;6.22;;;3.25;;
61685;SDS011;47592;45.904;8.978;2023-05-07T02:58:21;8.00;;;3.72;;
61685;SDS011;47592;45.904;8.978;2023-05-07T03:00:49;6.78;;;3.47;;
61685;SDS011;47592;45.904;8.978;2023-05-07T03:03:17;6.35;;;3.20;;
61685;SDS011;47592;45.904;8.978;2023-05-07T03:05:42;5.30;;;2.75;;
61685;SDS011;47592;45.904;8.978;2023-05-07T03:08:09;6.03;;;3.10;;
61685;SDS011;47592;45.904;8.978;2023-05-07T06:21:01;3.90;;;1.90;;
61685;SDS011;47592;45.904;8.978;2023-05-07T06:23:27;4.22;;;2.05;;
61685;SDS011;47592;45.904;8.978;2023-05-07T06:25:54;4.38;;;2.05;;
61685;SDS011;47592;45.904;8.978;2023-05-07T13:14:10;6.18;;;3.67;;
61685;SDS011;47592;45.904;8.978;2023-05-07T13:16:35;6.18;;;3.33;;
61685;SDS011;47592;45.904;8.978;2023-05-07T13:19:01;5.13;;;3.10;;
61685;SDS011;47592;45.904;8.978;2023-05-07T13:21:29;5.47;;;2.80;;
61685;SDS011;47592;45.904;8.978;2023-05-07T13:23:57;5.03;;;3.20;;
61685;SDS011;47592;45.904;8.978;2023-05-07T13:26:23;5.05;;;3.30;;
61685;SDS011;47592;45.904;8.978;2023-05-07T13:28:55;4.30;;;2.50;;
61685;SDS011;47592;45.904;8.978;2023-05-07T13:31:20;5.15;;;2.83;;
61685;SDS011;47592;45.904;8.978;2023-05-07T13:33:51;5.82;;;3.20;;
61685;SDS011;47592;45.904;8.978;2023-05-07T13:36:23;4.85;;;2.97;;
61685;SDS011;47592;45.904;8.978;2023-05-07T13:38:52;5.13;;;3.05;;
61685;SDS011;47592;45.904;8.978;2023-05-07T13:41:19;4.70;;;2.85;;
61685;SDS011;47592;45.904;8.978;2023-05-07T13:43:47;5.95;;;2.92;;
61685;SDS011;47592;45.904;8.978;2023-05-07T13:46:12;5.05;;;2.95;;
61685;SDS011;47592;45.904;8.978;2023-05-07T13:48:42;4.90;;;3.08;;
61685;SDS011;47592;45.904;8.978;2023-05-07T13:51:08;4.80;;;2.90;;
61685;SDS011;47592;45.904;8.978;2023-05-07T13:53:33;5.35;;;2.75;;
61685;SDS011;47592;45.904;8.978;2023-05-07T13:56:00;4.57;;;2.72;;
61685;SDS011;47592;45.904;8.978;2023-05-07T13:58:28;5.60;;;3.03;;
61685;SDS011;47592;45.904;8.978;2023-05-07T14:00:53;6.15;;;2.63;;
61685;SDS011;47592;45.904;8.978;2023-05-07T14:03:18;4.95;;;2.63;;
61685;SDS011;47592;45.904;8.978;2023-05-07T14:05:44;4.57;;;2.75;;
61685;SDS011;47592;45.904;8.978;2023-05-07T14:08:10;4.63;;;2.67;;
61685;SDS011;47592;45.904;8.978;2023-05-07T14:10:37;5.30;;;2.78;;
61685;SDS011;47592;45.904;8.978;2023-05-07T14:13:03;4.63;;;2.95;;
61685;SDS011;47592;45.904;8.978;2023-05-07T17:29:29;5.88;;;3.15;;
61685;SDS011;47592;45.904;8.978;2023-05-07T17:31:58;5.97;;;3.95;;
61685;SDS011;47592;45.904;8.978;2023-05-07T17:34:25;6.18;;;3.90;;
61685;SDS011;47592;45.904;8.978;2023-05-07T17:36:54;8.75;;;3.33;;
61685;SDS011;47592;45.904;8.978;2023-05-07T17:39:23;5.53;;;3.42;;
61685;SDS011;47592;45.904;8.978;2023-05-07T17:41:50;5.32;;;2.92;;
61685;SDS011;47592;45.904;8.978;2023-05-07T17:44:17;4.90;;;2.95;;
61685;SDS011;47592;45.904;8.978;2023-05-07T19:11:15;5.45;;;2.47;;
61685;SDS011;47592;45.904;8.978;2023-05-07T19:13:45;4.95;;;2.30;;
61685;SDS011;47592;45.904;8.978;2023-05-07T19:16:12;5.63;;;2.47;;
61685;SDS011;47592;45.904;8.978;2023-05-07T19:18:38;6.32;;;2.45;;
61685;SDS011;47592;45.904;8.978;2023-05-07T19:21:04;4.40;;;2.15;;
61685;SDS011;47592;45.904;8.978;2023-05-07T19:23:35;4.93;;;2.67;;
61685;SDS011;47592;45.904;8.978;2023-05-07T19:26:05;4.30;;;2.35;;
61685;SDS011;47592;45.904;8.978;2023-05-07T19:28:34;5.20;;;2.42;;
61685;SDS011;47592;45.904;8.978;2023-05-07T19:31:02;4.32;;;2.30;;
61685;SDS011;47592;45.904;8.978;2023-05-07T19:33:27;5.32;;;2.40;;
61685;SDS011;47592;45.904;8.978;2023-05-07T19:35:54;5.25;;;2.50;;
61685;SDS011;47592;45.904;8.978;2023-05-07T19:38:23;5.15;;;2.63;;
61685;SDS011;47592;45.904;8.978;2023-05-07T19:40:50;5.68;;;2.50;;
61685;SDS011;47592;45.904;8.978;2023-05-07T19:43:15;4.63;;;2.35;;
61685;SDS011;47592;45.904;8.978;2023-05-07T19:45:41;5.88;;;2.20;;
61685;SDS011;47592;45.904;8.978;2023-05-07T21:40:18;4.40;;;2.05;;
61685;SDS011;47592;45.904;8.978;2023-05-07T21:42:43;4.65;;;2.20;;
61685;SDS011;47592;45.904;8.978;2023-05-07T21:45:11;5.35;;;2.15;;
61685;SDS011;47592;45.904;8.978;2023-05-07T21:47:42;5.38;;;2.30;;
61685;SDS011;47592;45.904;8.978;2023-05-07T21:50:09;5.10;;;2.40;;
61685;SDS011;47592;45.904;8.978;2023-05-07T21:52:37;5.30;;;2.30;;
61685;SDS011;47592;45.904;8.978;2023-05-07T21:55:06;4.30;;;2.15;;
61685;SDS011;47592;45.904;8.978;2023-05-07T22:21:19;4.55;;;2.00;;
61685;SDS011;47592;45.904;8.978;2023-05-07T22:23:45;5.63;;;1.70;;
61685;SDS011;47592;45.904;8.978;2023-05-07T22:26:14;3.65;;;1.52;;
61685;SDS011;47592;45.904;8.978;2023-05-07T22:28:42;5.00;;;1.90;;
61685;SDS011;47592;45.904;8.978;2023-05-07T22:31:12;4.22;;;1.60;;
61685;SDS011;47592;45.904;8.978;2023-05-07T22:33:39;3.67;;;1.45;;
61685;SDS011;47592;45.904;8.978;2023-05-07T22:36:05;4.28;;;1.58;;
61685;SDS011;47592;45.904;8.978;2023-05-07T22:38:31;4.40;;;1.63;;
61685;SDS011;47592;45.904;8.978;2023-05-07T22:40:59;5.03;;;1.60;;
61685;SDS011;47592;45.904;8.978;2023-05-07T22:43:30;4.85;;;1.70;;
61685;SDS011;47592;45.904;8.978;2023-05-07T22:45:59;3.50;;;1.55;;
61685;SDS011;47592;45.904;8.978;2023-05-07T22:48:26;3.60;;;1.60;;
61685;SDS011;47592;45.904;8.978;2023-05-07T22:50:54;3.88;;;1.42;;
61685;SDS011;47592;45.904;8.978;2023-05-07T22:53:20;4.78;;;1.55;;
61685;SDS011;47592;45.904;8.978;2023-05-07T22:55:46;4.10;;;1.55;;
61685;SDS011;47592;45.904;8.978;2023-05-07T22:58:12;3.63;;;1.65;;
61685;SDS011;47592;45.904;8.978;2023-05-07T23:00:37;3.83;;;1.50;;
61685;SDS011;47592;45.904;8.978;2023-05-07T23:03:06;3.47;;;1.50;;
61685;SDS011;47592;45.904;8.978;2023-05-07T23:05:31;4.32;;;1.80;;
61685;SDS011;47592;45.904;8.978;2023-05-07T23:08:06;4.57;;;1.70;;
61685;SDS011;47592;45.904;8.978;2023-05-07T23:10:53;3.67;;;1.65;;
61685;SDS011;47592;45.904;8.978;2023-05-07T23:13:21;4.13;;;1.52;;
61685;SDS011;47592;45.904;8.978;2023-05-07T23:15:47;4.55;;;1.77;;
61685;SDS011;47592;45.904;8.978;2023-05-07T23:18:12;4.55;;;1.83;;
61685;SDS011;47592;45.904;8.978;2023-05-07T23:20:43;4.97;;;1.88;;
61685;SDS011;47592;45.904;8.978;2023-05-07T23:23:12;3.90;;;1.60;;
61685;SDS011;47592;45.904;8.978;2023-05-07T23:25:37;5.30;;;1.90;;
61685;SDS011;47592;45.904;8.978;2023-05-07T23:28:05;4.50;;;1.60;;
61685;SDS011;47592;45.904;8.978;2023-05-07T23:30:30;4.43;;;1.80;;
61685;SDS011;47592;45.904;8.978;2023-05-07T23:32:56;4.05;;;1.90;;
61685;SDS011;47592;45.904;8.978;2023-05-07T23:35:21;5.28;;;1.80;;
61685;SDS011;47592;45.904;8.978;2023-05-07T23:37:47;4.40;;;1.90;;
61685;SDS011;47592;45.904;8.978;2023-05-07T23:40:12;4.78;;;1.60;;
61685;SDS011;47592;45.904;8.978;2023-05-07T23:42:38;4.65;;;1.88;;
61685;SDS011;47592;45.904;8.978;2023-05-07T23:45:05;3.97;;;1.67;;
61685;SDS011;47592;45.904;8.978;2023-05-07T23:47:33;4.07;;;1.90;;
61685;SDS011;47592;45.904;8.978;2023-05-07T23:50:04;3.95;;;1.60;;
61685;SDS011;47592;45.904;8.978;2023-05-07T23:52:32;4.35;;;1.60;;
61685;SDS011;47592;45.904;8.978;2023-05-07T23:55:00;3.65;;;1.70;;
61685;SDS011;47592;45.904;8.978;2023-05-07T23:57:28;4.03;;;1.70;;
61685;SDS011;47592;45.904;8.978;2023-05-07T23:59:53;5.25;;;1.90;;
